Wetterstation-Oberesslingen
Wetterdaten: aktuell Sonntag, 13.06.2021 13:00
Datum Zeit Temperatur BodenT. -10 Temp+5cm Luftfeuchte Bod.Feuchte Luftdruck Regen Wind Richtung Richtung Sonnenschein ET Solar Taupunkt Windchill Windben
13.06.2021 13:00 22,6 C 20,6 C 37,2 C 50 % 200 cb 1025,6 hPa 0,0 l/m 7,6 km/h (2 Bft) N-NW 337 60 min 0,584 mm 930 W/m 11,6 C 22,6 C 16,1 km/h (3 Bft)
13.06.2021 12:00 21,8 C 20,0 C 36,7 C 53 % 200 cb 1025,7 hPa 0,0 l/m 7,6 km/h (2 Bft) W-NW 292 60 min 0,508 mm 884 W/m 11,8 C 21,8 C 17,7 km/h (3 Bft)
13.06.2021 11:00 20,3 C 20,0 C 35,0 C 58 % 200 cb 1025,7 hPa 0,0 l/m 6,0 km/h (2 Bft) NO 45 60 min 0,432 mm 896 W/m 11,8 C 20,3 C 14,5 km/h (3 Bft)
13.06.2021 10:00 19,9 C 20,0 C 29,4 C 61 % 200 cb 1025,6 hPa 0,0 l/m 4,3 km/h (1 Bft) NW 315 60 min 0,356 mm 682 W/m 12,2 C 19,9 C 9,7 km/h (2 Bft)
13.06.2021 09:00 18,8 C 20,0 C 28,3 C 61 % 200 cb 1025,3 hPa 0,0 l/m 4,3 km/h (1 Bft) N 360 60 min 0,254 mm 517 W/m 11,1 C 18,8 C 6,4 km/h (2 Bft)
13.06.2021 08:00 17,9 C 20,0 C 24,4 C 68 % 200 cb 1024,9 hPa 0,0 l/m 6,0 km/h (2 Bft) NW 315 60 min 0,152 mm 341 W/m 11,9 C 17,9 C 8,0 km/h (2 Bft)
13.06.2021 07:00 17,1 C 20,6 C 15,6 C 69 % 200 cb 1024,4 hPa 0,0 l/m 4,3 km/h (1 Bft) N 360 30 min 0,076 mm 155 W/m 11,4 C 17,1 C 6,4 km/h (2 Bft)
13.06.2021 06:00 16,8 C 20,6 C 15,6 C 71 % 200 cb 1024,0 hPa 0,0 l/m 4,3 km/h (1 Bft) NW 315 0 min 0,025 mm 26 W/m 11,5 C 16,8 C 6,4 km/h (2 Bft)
13.06.2021 05:00 16,8 C 20,6 C 15,0 C 72 % 200 cb 1023,7 hPa 0,0 l/m 2,7 km/h (1 Bft) N-NW 337 0 min 0,000 mm 0 W/m 11,7 C 16,8 C 4,8 km/h (1 Bft)
13.06.2021 04:00 17,3 C 20,6 C 15,0 C 73 % 200 cb 1023,4 hPa 0,0 l/m 2,7 km/h (1 Bft) NW 315 0 min 0,025 mm 0 W/m 12,4 C 17,3 C 6,4 km/h (2 Bft)
13.06.2021 03:00 17,9 C 21,1 C 16,7 C 74 % 200 cb 1023,6 hPa 0,0 l/m 4,3 km/h (1 Bft) NW 315 0 min 0,025 mm 0 W/m 13,2 C 17,9 C 6,4 km/h (2 Bft)
13.06.2021 02:00 17,9 C 21,1 C 15,0 C 73 % 200 cb 1023,4 hPa 0,0 l/m 2,7 km/h (1 Bft) N-NW 337 0 min 0,025 mm 0 W/m 13,0 C 17,9 C 4,8 km/h (1 Bft)
13.06.2021 01:00 19,4 C 21,1 C 16,1 C 68 % 200 cb 1022,9 hPa 0,0 l/m 2,7 km/h (1 Bft) N-NW 337 0 min 0,025 mm 0 W/m 13,3 C 19,4 C 4,8 km/h (1 Bft)
13.06.2021 00:00 19,9 C 21,7 C 16,7 C 71 % 200 cb 1022,5 hPa 0,0 l/m 2,7 km/h (1 Bft) NW 315 0 min 0,025 mm 0 W/m 14,5 C 19,9 C 4,8 km/h (1 Bft)
12.06.2021 23:00 20,7 C 21,7 C 18,9 C 67 % 200 cb 1022,1 hPa 0,0 l/m 4,3 km/h (1 Bft) NW 315 0 min 0,025 mm 0 W/m 14,3 C 20,7 C 6,4 km/h (2 Bft)
12.06.2021 22:00 20,7 C 21,7 C 17,8 C 66 % 200 cb 1021,4 hPa 0,0 l/m 6,0 km/h (2 Bft) NW 315 10 min 0,051 mm 0 W/m 14,1 C 20,7 C 14,5 km/h (3 Bft)
12.06.2021 21:00 22,0 C 21,7 C 20,6 C 63 % 200 cb 1020,7 hPa 0,0 l/m 9,2 km/h (2 Bft) W-NW 292 0 min 0,076 mm 19 W/m 14,6 C 22,0 C 20,9 km/h (4 Bft)
12.06.2021 20:00 23,5 C 21,7 C 22,2 C 59 % 200 cb 1019,9 hPa 0,0 l/m 9,2 km/h (2 Bft) NW 315 10 min 0,152 mm 35 W/m 15,0 C 23,5 C 19,3 km/h (3 Bft)
12.06.2021 19:00 26,4 C 21,7 C 25,0 C 47 % 200 cb 1018,7 hPa 0,0 l/m 12,4 km/h (2 Bft) NW 315 60 min 0,356 mm 336 W/m 14,2 C 26,4 C 24,1 km/h (4 Bft)
12.06.2021 18:00 27,5 C 21,7 C 32,2 C 45 % 200 cb 1018,6 hPa 0,0 l/m 12,4 km/h (2 Bft) W 270 60 min 0,432 mm 499 W/m 14,5 C 27,5 C 27,4 km/h (5 Bft)
12.06.2021 17:00 28,1 C 21,7 C 34,4 C 43 % 200 cb 1018,3 hPa 0,0 l/m 12,4 km/h (2 Bft) W-NW 292 60 min 0,533 mm 635 W/m 14,3 C 28,1 C 24,1 km/h (4 Bft)
12.06.2021 16:00 28,1 C 21,1 C 37,8 C 44 % 200 cb 1018,3 hPa 0,0 l/m 10,8 km/h (2 Bft) W-NW 292 60 min 0,559 mm 768 W/m 14,7 C 28,1 C 24,1 km/h (4 Bft)
12.06.2021 15:00 28,0 C 20,6 C 37,2 C 47 % 200 cb 1018,3 hPa 0,0 l/m 14,0 km/h (3 Bft) NW 315 55 min 0,584 mm 858 W/m 15,6 C 28,0 C 27,4 km/h (5 Bft)
12.06.2021 14:00 27,7 C 20,6 C 32,2 C 52 % 200 cb 1018,0 hPa 0,0 l/m 10,8 km/h (2 Bft) NW 315 0 min 0,559 mm 334 W/m 16,9 C 27,7 C 22,5 km/h (4 Bft)
_ Min-Zeit 04:30 07:05 04:10 16:10 14:00 14:00 - 23:40 - - - - - 09:00 04:30 01:55
Minimum _ 16,6 C 20,0 C 13,9 C 42 % 200 cb 1018,0 hPa - 1,1 km/h (1 Bft) - - - - - 11,1 C 16,6 C 1,6 km/h (1 Bft)
_ Max-Zeit 15:25 17:00 14:50 04:15 14:00 11:55 14:00 18:30 - - 14:05 15:00 14:40 14:00 15:25 19:30
Maximum _ 28,6 C 21,7 C 40,0 C 75 % 200 cb 1025,8 hPa 0,0 l/m 15,6 km/h
NW (3 Bft)
- - 5 min 0,584 mm 1076 W/m 16,9 C 28,6 C 38,6 km/h
N-NW (6 Bft)
Durchschnitt _ 21,9 C 20,9 C 24,8 C 60 % 200 cb 1022,0 hPa #0,0 l/m 7,0 km/h (2 Bft) NW - #6:30 h #2,462 mm 519 W/m 13,6 C 21,9 C 14,0 km/h (3 Bft)